sensor_id;sensor_type;location;lat;lon;timestamp;P1;durP1;ratioP1;P2;durP2;ratioP2
38843;SDS011;24596;48.080;8.362;2023-10-31T00:01:23;0.77;;;0.60;;
38843;SDS011;24596;48.080;8.362;2023-10-31T00:03:48;2.17;;;0.60;;
38843;SDS011;24596;48.080;8.362;2023-10-31T00:06:14;1.30;;;0.65;;
38843;SDS011;24596;48.080;8.362;2023-10-31T00:08:39;1.30;;;0.60;;
38843;SDS011;24596;48.080;8.362;2023-10-31T00:11:04;1.25;;;0.60;;
38843;SDS011;24596;48.080;8.362;2023-10-31T00:13:30;0.90;;;0.60;;
38843;SDS011;24596;48.080;8.362;2023-10-31T00:15:55;1.73;;;0.80;;
38843;SDS011;24596;48.080;8.362;2023-10-31T00:18:21;1.77;;;0.95;;
38843;SDS011;24596;48.080;8.362;2023-10-31T00:20:46;1.73;;;0.50;;
38843;SDS011;24596;48.080;8.362;2023-10-31T00:23:11;1.15;;;0.50;;
38843;SDS011;24596;48.080;8.362;2023-10-31T00:25:37;1.05;;;0.60;;
38843;SDS011;24596;48.080;8.362;2023-10-31T00:28:02;1.42;;;0.70;;
38843;SDS011;24596;48.080;8.362;2023-10-31T00:30:27;2.10;;;0.73;;
38843;SDS011;24596;48.080;8.362;2023-10-31T00:32:53;3.03;;;0.70;;
38843;SDS011;24596;48.080;8.362;2023-10-31T00:35:18;4.95;;;0.80;;
38843;SDS011;24596;48.080;8.362;2023-10-31T00:37:43;1.20;;;0.60;;
38843;SDS011;24596;48.080;8.362;2023-10-31T00:40:08;2.95;;;0.70;;
38843;SDS011;24596;48.080;8.362;2023-10-31T00:42:37;1.10;;;0.57;;
38843;SDS011;24596;48.080;8.362;2023-10-31T00:45:02;3.90;;;0.68;;
38843;SDS011;24596;48.080;8.362;2023-10-31T00:47:28;2.40;;;0.60;;
38843;SDS011;24596;48.080;8.362;2023-10-31T00:49:53;2.35;;;0.60;;
38843;SDS011;24596;48.080;8.362;2023-10-31T00:52:19;6.63;;;0.82;;
38843;SDS011;24596;48.080;8.362;2023-10-31T00:54:44;1.55;;;0.70;;
38843;SDS011;24596;48.080;8.362;2023-10-31T00:57:09;2.67;;;0.70;;
38843;SDS011;24596;48.080;8.362;2023-10-31T00:59:35;1.02;;;0.50;;
38843;SDS011;24596;48.080;8.362;2023-10-31T01:02:00;1.58;;;0.70;;
38843;SDS011;24596;48.080;8.362;2023-10-31T01:04:25;1.92;;;0.65;;
38843;SDS011;24596;48.080;8.362;2023-10-31T01:06:51;2.22;;;0.85;;
38843;SDS011;24596;48.080;8.362;2023-10-31T01:09:16;3.13;;;0.73;;
38843;SDS011;24596;48.080;8.362;2023-10-31T01:11:41;2.72;;;0.80;;
38843;SDS011;24596;48.080;8.362;2023-10-31T01:14:07;4.18;;;0.70;;
38843;SDS011;24596;48.080;8.362;2023-10-31T01:16:32;1.10;;;0.60;;
38843;SDS011;24596;48.080;8.362;2023-10-31T01:18:57;3.72;;;0.80;;
38843;SDS011;24596;48.080;8.362;2023-10-31T01:21:23;5.00;;;0.63;;
38843;SDS011;24596;48.080;8.362;2023-10-31T01:23:48;1.75;;;0.68;;
38843;SDS011;24596;48.080;8.362;2023-10-31T01:26:14;3.13;;;0.70;;
38843;SDS011;24596;48.080;8.362;2023-10-31T01:28:39;1.70;;;0.50;;
38843;SDS011;24596;48.080;8.362;2023-10-31T01:31:04;2.53;;;0.60;;
38843;SDS011;24596;48.080;8.362;2023-10-31T01:33:31;5.00;;;0.98;;
38843;SDS011;24596;48.080;8.362;2023-10-31T01:35:56;1.05;;;0.60;;
38843;SDS011;24596;48.080;8.362;2023-10-31T01:38:21;1.58;;;0.55;;
38843;SDS011;24596;48.080;8.362;2023-10-31T01:40:50;0.60;;;0.32;;
38843;SDS011;24596;48.080;8.362;2023-10-31T01:45:56;2.28;;;0.43;;
38843;SDS011;24596;48.080;8.362;2023-10-31T01:48:21;0.90;;;0.30;;
38843;SDS011;24596;48.080;8.362;2023-10-31T01:50:48;0.40;;;0.30;;
38843;SDS011;24596;48.080;8.362;2023-10-31T01:53:14;2.15;;;0.82;;
38843;SDS011;24596;48.080;8.362;2023-10-31T01:55:39;0.82;;;0.35;;
38843;SDS011;24596;48.080;8.362;2023-10-31T01:58:04;2.92;;;0.80;;
38843;SDS011;24596;48.080;8.362;2023-10-31T02:00:30;3.92;;;1.30;;
38843;SDS011;24596;48.080;8.362;2023-10-31T02:02:55;1.25;;;0.60;;
38843;SDS011;24596;48.080;8.362;2023-10-31T02:05:21;3.00;;;0.65;;
38843;SDS011;24596;48.080;8.362;2023-10-31T02:07:47;1.20;;;0.50;;
38843;SDS011;24596;48.080;8.362;2023-10-31T02:10:12;1.65;;;0.60;;
38843;SDS011;24596;48.080;8.362;2023-10-31T02:12:37;0.90;;;0.32;;
38843;SDS011;24596;48.080;8.362;2023-10-31T02:15:03;3.50;;;0.60;;
38843;SDS011;24596;48.080;8.362;2023-10-31T02:17:29;1.02;;;0.45;;
38843;SDS011;24596;48.080;8.362;2023-10-31T02:19:55;0.75;;;0.43;;
38843;SDS011;24596;48.080;8.362;2023-10-31T02:22:20;2.38;;;0.77;;
38843;SDS011;24596;48.080;8.362;2023-10-31T02:24:45;2.28;;;0.40;;
38843;SDS011;24596;48.080;8.362;2023-10-31T02:27:11;0.85;;;0.50;;
38843;SDS011;24596;48.080;8.362;2023-10-31T02:29:36;1.17;;;0.45;;
38843;SDS011;24596;48.080;8.362;2023-10-31T02:32:01;2.60;;;0.40;;
38843;SDS011;24596;48.080;8.362;2023-10-31T02:34:27;1.00;;;0.40;;
38843;SDS011;24596;48.080;8.362;2023-10-31T02:36:52;1.58;;;0.50;;
38843;SDS011;24596;48.080;8.362;2023-10-31T02:39:17;0.47;;;0.30;;
38843;SDS011;24596;48.080;8.362;2023-10-31T02:41:43;1.85;;;0.40;;
38843;SDS011;24596;48.080;8.362;2023-10-31T02:44:08;2.00;;;0.30;;
38843;SDS011;24596;48.080;8.362;2023-10-31T02:46:37;2.97;;;0.30;;
38843;SDS011;24596;48.080;8.362;2023-10-31T02:49:02;0.98;;;0.30;;
38843;SDS011;24596;48.080;8.362;2023-10-31T02:51:30;1.55;;;0.40;;
38843;SDS011;24596;48.080;8.362;2023-10-31T02:53:55;0.75;;;0.22;;
38843;SDS011;24596;48.080;8.362;2023-10-31T02:56:21;0.90;;;0.30;;
38843;SDS011;24596;48.080;8.362;2023-10-31T02:58:46;0.30;;;0.30;;
38843;SDS011;24596;48.080;8.362;2023-10-31T03:01:11;0.57;;;0.30;;
38843;SDS011;24596;48.080;8.362;2023-10-31T03:03:36;1.60;;;0.60;;
38843;SDS011;24596;48.080;8.362;2023-10-31T03:06:02;2.33;;;0.50;;
38843;SDS011;24596;48.080;8.362;2023-10-31T03:08:27;0.30;;;0.30;;
38843;SDS011;24596;48.080;8.362;2023-10-31T03:10:53;1.65;;;0.50;;
38843;SDS011;24596;48.080;8.362;2023-10-31T03:13:18;1.17;;;0.50;;
38843;SDS011;24596;48.080;8.362;2023-10-31T03:15:43;1.65;;;0.40;;
38843;SDS011;24596;48.080;8.362;2023-10-31T03:18:09;2.75;;;0.45;;
38843;SDS011;24596;48.080;8.362;2023-10-31T03:20:34;2.58;;;0.50;;
38843;SDS011;24596;48.080;8.362;2023-10-31T03:22:59;1.40;;;0.50;;
38843;SDS011;24596;48.080;8.362;2023-10-31T03:25:24;1.50;;;0.60;;
38843;SDS011;24596;48.080;8.362;2023-10-31T03:27:50;2.03;;;0.57;;
38843;SDS011;24596;48.080;8.362;2023-10-31T03:30:15;1.60;;;0.52;;
38843;SDS011;24596;48.080;8.362;2023-10-31T03:32:40;2.92;;;0.60;;
38843;SDS011;24596;48.080;8.362;2023-10-31T03:35:05;1.20;;;0.50;;
38843;SDS011;24596;48.080;8.362;2023-10-31T03:37:31;0.80;;;0.40;;
38843;SDS011;24596;48.080;8.362;2023-10-31T03:39:56;3.28;;;0.60;;
38843;SDS011;24596;48.080;8.362;2023-10-31T03:42:21;1.13;;;0.60;;
38843;SDS011;24596;48.080;8.362;2023-10-31T03:44:47;3.00;;;0.70;;
38843;SDS011;24596;48.080;8.362;2023-10-31T03:47:12;1.65;;;0.57;;
38843;SDS011;24596;48.080;8.362;2023-10-31T03:49:37;2.47;;;1.20;;
38843;SDS011;24596;48.080;8.362;2023-10-31T03:52:03;2.10;;;0.52;;
38843;SDS011;24596;48.080;8.362;2023-10-31T03:54:29;1.92;;;0.52;;
38843;SDS011;24596;48.080;8.362;2023-10-31T03:56:54;2.38;;;0.77;;
38843;SDS011;24596;48.080;8.362;2023-10-31T03:59:19;2.88;;;0.68;;
38843;SDS011;24596;48.080;8.362;2023-10-31T04:01:44;4.80;;;1.02;;
38843;SDS011;24596;48.080;8.362;2023-10-31T04:04:10;3.20;;;0.73;;
38843;SDS011;24596;48.080;8.362;2023-10-31T04:06:35;1.90;;;0.70;;
38843;SDS011;24596;48.080;8.362;2023-10-31T04:09:04;3.00;;;1.08;;
38843;SDS011;24596;48.080;8.362;2023-10-31T04:11:29;3.03;;;0.73;;
38843;SDS011;24596;48.080;8.362;2023-10-31T04:13:55;3.72;;;0.90;;
38843;SDS011;24596;48.080;8.362;2023-10-31T04:16:20;3.28;;;0.57;;
38843;SDS011;24596;48.080;8.362;2023-10-31T04:18:45;5.15;;;1.58;;
38843;SDS011;24596;48.080;8.362;2023-10-31T04:21:11;2.72;;;0.75;;
38843;SDS011;24596;48.080;8.362;2023-10-31T04:23:36;3.15;;;0.90;;
38843;SDS011;24596;48.080;8.362;2023-10-31T04:26:01;2.88;;;0.70;;
38843;SDS011;24596;48.080;8.362;2023-10-31T04:28:27;2.63;;;0.80;;
38843;SDS011;24596;48.080;8.362;2023-10-31T04:30:52;6.72;;;0.90;;
38843;SDS011;24596;48.080;8.362;2023-10-31T04:33:17;6.40;;;0.90;;
38843;SDS011;24596;48.080;8.362;2023-10-31T04:35:42;5.30;;;1.00;;
38843;SDS011;24596;48.080;8.362;2023-10-31T04:38:08;3.45;;;1.38;;
38843;SDS011;24596;48.080;8.362;2023-10-31T04:40:33;4.05;;;0.90;;
38843;SDS011;24596;48.080;8.362;2023-10-31T04:42:58;2.53;;;1.00;;
38843;SDS011;24596;48.080;8.362;2023-10-31T04:45:23;4.15;;;1.10;;
38843;SDS011;24596;48.080;8.362;2023-10-31T04:47:49;6.68;;;1.10;;
38843;SDS011;24596;48.080;8.362;2023-10-31T04:50:14;4.38;;;0.80;;
38843;SDS011;24596;48.080;8.362;2023-10-31T04:52:40;3.00;;;0.88;;
38843;SDS011;24596;48.080;8.362;2023-10-31T04:55:08;2.80;;;0.88;;
38843;SDS011;24596;48.080;8.362;2023-10-31T04:57:34;3.38;;;0.90;;
38843;SDS011;24596;48.080;8.362;2023-10-31T04:59:59;3.30;;;0.90;;
38843;SDS011;24596;48.080;8.362;2023-10-31T05:02:24;7.82;;;2.88;;
38843;SDS011;24596;48.080;8.362;2023-10-31T05:04:50;2.28;;;0.70;;
38843;SDS011;24596;48.080;8.362;2023-10-31T05:07:18;2.97;;;0.80;;
38843;SDS011;24596;48.080;8.362;2023-10-31T05:09:43;1.25;;;0.63;;
38843;SDS011;24596;48.080;8.362;2023-10-31T05:12:12;2.42;;;0.73;;
38843;SDS011;24596;48.080;8.362;2023-10-31T05:14:37;1.85;;;0.93;;
38843;SDS011;24596;48.080;8.362;2023-10-31T05:17:03;3.42;;;0.80;;
38843;SDS011;24596;48.080;8.362;2023-10-31T05:19:29;2.67;;;0.95;;
38843;SDS011;24596;48.080;8.362;2023-10-31T05:21:54;7.93;;;0.98;;
38843;SDS011;24596;48.080;8.362;2023-10-31T05:24:20;3.78;;;0.88;;
38843;SDS011;24596;48.080;8.362;2023-10-31T05:26:45;3.17;;;0.70;;
38843;SDS011;24596;48.080;8.362;2023-10-31T05:29:11;3.75;;;0.80;;
38843;SDS011;24596;48.080;8.362;2023-10-31T05:31:36;2.40;;;0.85;;
38843;SDS011;24596;48.080;8.362;2023-10-31T05:34:02;5.72;;;1.13;;
38843;SDS011;24596;48.080;8.362;2023-10-31T05:36:28;4.07;;;0.70;;
38843;SDS011;24596;48.080;8.362;2023-10-31T05:38:54;3.65;;;0.80;;
38843;SDS011;24596;48.080;8.362;2023-10-31T05:41:19;1.75;;;0.70;;
38843;SDS011;24596;48.080;8.362;2023-10-31T05:43:44;8.90;;;1.00;;
38843;SDS011;24596;48.080;8.362;2023-10-31T05:46:10;4.40;;;1.00;;
38843;SDS011;24596;48.080;8.362;2023-10-31T05:48:38;4.60;;;0.80;;
38843;SDS011;24596;48.080;8.362;2023-10-31T05:51:04;3.50;;;0.90;;
38843;SDS011;24596;48.080;8.362;2023-10-31T05:53:30;4.25;;;0.90;;
38843;SDS011;24596;48.080;8.362;2023-10-31T05:55:55;7.30;;;1.20;;
38843;SDS011;24596;48.080;8.362;2023-10-31T05:58:20;3.42;;;0.85;;
38843;SDS011;24596;48.080;8.362;2023-10-31T06:00:46;7.15;;;2.60;;
38843;SDS011;24596;48.080;8.362;2023-10-31T06:03:12;8.23;;;1.40;;
38843;SDS011;24596;48.080;8.362;2023-10-31T06:05:37;7.32;;;1.67;;
38843;SDS011;24596;48.080;8.362;2023-10-31T06:08:03;6.78;;;1.15;;
38843;SDS011;24596;48.080;8.362;2023-10-31T06:10:28;7.75;;;1.38;;
38843;SDS011;24596;48.080;8.362;2023-10-31T06:12:53;3.10;;;1.00;;
38843;SDS011;24596;48.080;8.362;2023-10-31T06:15:18;7.43;;;1.30;;
38843;SDS011;24596;48.080;8.362;2023-10-31T06:17:44;4.43;;;1.27;;
38843;SDS011;24596;48.080;8.362;2023-10-31T06:20:09;6.20;;;1.00;;
38843;SDS011;24596;48.080;8.362;2023-10-31T06:22:34;8.82;;;1.33;;
38843;SDS011;24596;48.080;8.362;2023-10-31T06:25:00;7.80;;;1.23;;
38843;SDS011;24596;48.080;8.362;2023-10-31T06:27:25;4.88;;;0.98;;
38843;SDS011;24596;48.080;8.362;2023-10-31T06:29:55;6.57;;;1.20;;
38843;SDS011;24596;48.080;8.362;2023-10-31T06:32:20;4.88;;;1.10;;
38843;SDS011;24596;48.080;8.362;2023-10-31T06:34:45;6.45;;;1.10;;
38843;SDS011;24596;48.080;8.362;2023-10-31T06:37:11;4.78;;;1.15;;
38843;SDS011;24596;48.080;8.362;2023-10-31T06:39:36;5.18;;;1.02;;
38843;SDS011;24596;48.080;8.362;2023-10-31T06:42:01;7.00;;;2.08;;
38843;SDS011;24596;48.080;8.362;2023-10-31T06:44:26;5.82;;;1.13;;
38843;SDS011;24596;48.080;8.362;2023-10-31T06:46:52;5.80;;;1.00;;
38843;SDS011;24596;48.080;8.362;2023-10-31T06:49:17;4.88;;;1.55;;
38843;SDS011;24596;48.080;8.362;2023-10-31T06:51:42;3.35;;;1.08;;
38843;SDS011;24596;48.080;8.362;2023-10-31T06:54:07;4.72;;;1.15;;
38843;SDS011;24596;48.080;8.362;2023-10-31T06:56:33;5.00;;;1.30;;
38843;SDS011;24596;48.080;8.362;2023-10-31T06:58:58;7.57;;;1.70;;
38843;SDS011;24596;48.080;8.362;2023-10-31T07:01:23;6.10;;;1.20;;
38843;SDS011;24596;48.080;8.362;2023-10-31T07:03:49;5.88;;;1.10;;
38843;SDS011;24596;48.080;8.362;2023-10-31T07:06:14;6.18;;;1.23;;
38843;SDS011;24596;48.080;8.362;2023-10-31T07:08:39;6.75;;;1.30;;
38843;SDS011;24596;48.080;8.362;2023-10-31T07:11:04;5.78;;;1.35;;
38843;SDS011;24596;48.080;8.362;2023-10-31T07:13:30;7.20;;;1.55;;
38843;SDS011;24596;48.080;8.362;2023-10-31T07:15:55;9.15;;;2.53;;
38843;SDS011;24596;48.080;8.362;2023-10-31T07:18:20;6.80;;;1.30;;
38843;SDS011;24596;48.080;8.362;2023-10-31T07:20:46;5.80;;;1.30;;
38843;SDS011;24596;48.080;8.362;2023-10-31T07:23:11;5.75;;;1.08;;
38843;SDS011;24596;48.080;8.362;2023-10-31T07:25:36;5.55;;;0.90;;
38843;SDS011;24596;48.080;8.362;2023-10-31T07:28:02;8.57;;;1.05;;
38843;SDS011;24596;48.080;8.362;2023-10-31T07:30:27;2.70;;;0.85;;
38843;SDS011;24596;48.080;8.362;2023-10-31T07:32:53;9.07;;;1.27;;
38843;SDS011;24596;48.080;8.362;2023-10-31T07:35:18;5.18;;;1.05;;
38843;SDS011;24596;48.080;8.362;2023-10-31T07:37:44;5.90;;;1.23;;
38843;SDS011;24596;48.080;8.362;2023-10-31T07:40:10;9.23;;;1.40;;
38843;SDS011;24596;48.080;8.362;2023-10-31T07:42:38;10.32;;;1.27;;
38843;SDS011;24596;48.080;8.362;2023-10-31T07:45:04;5.95;;;1.48;;
38843;SDS011;24596;48.080;8.362;2023-10-31T07:47:29;6.35;;;1.48;;
38843;SDS011;24596;48.080;8.362;2023-10-31T07:49:54;5.50;;;1.17;;
38843;SDS011;24596;48.080;8.362;2023-10-31T07:52:20;4.82;;;1.48;;
38843;SDS011;24596;48.080;8.362;2023-10-31T07:54:45;6.53;;;1.02;;
38843;SDS011;24596;48.080;8.362;2023-10-31T07:57:10;4.93;;;1.00;;
38843;SDS011;24596;48.080;8.362;2023-10-31T07:59:36;7.28;;;1.35;;
38843;SDS011;24596;48.080;8.362;2023-10-31T08:02:01;6.72;;;1.23;;
38843;SDS011;24596;48.080;8.362;2023-10-31T08:04:27;5.88;;;1.13;;
38843;SDS011;24596;48.080;8.362;2023-10-31T08:06:53;11.13;;;1.35;;
38843;SDS011;24596;48.080;8.362;2023-10-31T08:09:18;7.40;;;1.10;;
38843;SDS011;24596;48.080;8.362;2023-10-31T08:11:44;6.53;;;1.42;;
38843;SDS011;24596;48.080;8.362;2023-10-31T08:14:09;4.50;;;1.00;;
38843;SDS011;24596;48.080;8.362;2023-10-31T08:16:35;5.03;;;0.77;;
38843;SDS011;24596;48.080;8.362;2023-10-31T08:19:00;3.67;;;0.90;;
38843;SDS011;24596;48.080;8.362;2023-10-31T08:21:25;2.22;;;0.70;;
38843;SDS011;24596;48.080;8.362;2023-10-31T08:23:53;4.50;;;0.80;;
38843;SDS011;24596;48.080;8.362;2023-10-31T08:26:18;5.72;;;0.88;;
38843;SDS011;24596;48.080;8.362;2023-10-31T08:28:44;4.82;;;0.85;;
38843;SDS011;24596;48.080;8.362;2023-10-31T08:31:09;2.60;;;0.57;;
38843;SDS011;24596;48.080;8.362;2023-10-31T08:33:34;1.15;;;0.40;;
38843;SDS011;24596;48.080;8.362;2023-10-31T08:36:00;0.90;;;0.50;;
38843;SDS011;24596;48.080;8.362;2023-10-31T08:38:26;0.98;;;0.50;;
38843;SDS011;24596;48.080;8.362;2023-10-31T08:40:53;1.48;;;0.45;;
38843;SDS011;24596;48.080;8.362;2023-10-31T08:43:18;0.98;;;0.40;;
38843;SDS011;24596;48.080;8.362;2023-10-31T08:45:44;1.52;;;0.50;;
38843;SDS011;24596;48.080;8.362;2023-10-31T08:48:09;1.95;;;0.43;;
38843;SDS011;24596;48.080;8.362;2023-10-31T08:50:34;0.75;;;0.40;;
38843;SDS011;24596;48.080;8.362;2023-10-31T08:52:59;1.02;;;0.32;;
38843;SDS011;24596;48.080;8.362;2023-10-31T08:55:25;1.85;;;0.90;;
38843;SDS011;24596;48.080;8.362;2023-10-31T08:57:50;2.55;;;1.20;;
38843;SDS011;24596;48.080;8.362;2023-10-31T09:00:17;1.52;;;0.60;;
38843;SDS011;24596;48.080;8.362;2023-10-31T09:02:43;1.17;;;0.50;;
38843;SDS011;24596;48.080;8.362;2023-10-31T09:05:08;2.35;;;0.50;;
38843;SDS011;24596;48.080;8.362;2023-10-31T09:07:33;2.63;;;0.93;;
38843;SDS011;24596;48.080;8.362;2023-10-31T09:09:59;1.15;;;0.40;;
38843;SDS011;24596;48.080;8.362;2023-10-31T09:12:24;1.05;;;0.45;;
38843;SDS011;24596;48.080;8.362;2023-10-31T09:14:49;0.30;;;0.30;;
38843;SDS011;24596;48.080;8.362;2023-10-31T09:17:15;1.27;;;0.95;;
38843;SDS011;24596;48.080;8.362;2023-10-31T09:19:40;0.22;;;0.22;;
38843;SDS011;24596;48.080;8.362;2023-10-31T09:22:05;1.98;;;0.45;;
38843;SDS011;24596;48.080;8.362;2023-10-31T09:24:30;1.05;;;0.40;;
38843;SDS011;24596;48.080;8.362;2023-10-31T09:26:56;2.03;;;0.40;;
38843;SDS011;24596;48.080;8.362;2023-10-31T09:29:21;0.82;;;0.40;;
38843;SDS011;24596;48.080;8.362;2023-10-31T09:31:46;0.73;;;0.40;;
38843;SDS011;24596;48.080;8.362;2023-10-31T09:34:12;1.77;;;0.40;;
38843;SDS011;24596;48.080;8.362;2023-10-31T09:36:39;1.80;;;0.40;;
38843;SDS011;24596;48.080;8.362;2023-10-31T09:39:04;1.17;;;0.50;;
38843;SDS011;24596;48.080;8.362;2023-10-31T09:41:30;1.13;;;0.40;;
38843;SDS011;24596;48.080;8.362;2023-10-31T09:43:58;1.33;;;0.50;;
38843;SDS011;24596;48.080;8.362;2023-10-31T09:46:23;1.42;;;0.60;;
38843;SDS011;24596;48.080;8.362;2023-10-31T09:48:49;1.15;;;0.55;;
38843;SDS011;24596;48.080;8.362;2023-10-31T09:51:14;2.53;;;0.70;;
38843;SDS011;24596;48.080;8.362;2023-10-31T09:53:41;1.67;;;0.50;;
38843;SDS011;24596;48.080;8.362;2023-10-31T09:56:06;1.85;;;0.70;;
38843;SDS011;24596;48.080;8.362;2023-10-31T09:58:32;1.85;;;0.50;;
38843;SDS011;24596;48.080;8.362;2023-10-31T10:00:57;1.40;;;0.40;;
38843;SDS011;24596;48.080;8.362;2023-10-31T10:03:22;3.90;;;0.90;;
38843;SDS011;24596;48.080;8.362;2023-10-31T10:05:48;2.40;;;0.70;;
38843;SDS011;24596;48.080;8.362;2023-10-31T10:08:14;0.93;;;0.50;;
38843;SDS011;24596;48.080;8.362;2023-10-31T10:10:39;0.88;;;0.50;;
38843;SDS011;24596;48.080;8.362;2023-10-31T10:13:05;4.03;;;0.80;;
38843;SDS011;24596;48.080;8.362;2023-10-31T10:15:30;2.55;;;0.55;;
38843;SDS011;24596;48.080;8.362;2023-10-31T10:17:55;2.83;;;0.95;;
38843;SDS011;24596;48.080;8.362;2023-10-31T10:20:20;2.33;;;0.63;;
38843;SDS011;24596;48.080;8.362;2023-10-31T10:22:46;4.50;;;0.80;;
38843;SDS011;24596;48.080;8.362;2023-10-31T10:25:15;4.13;;;0.75;;
38843;SDS011;24596;48.080;8.362;2023-10-31T10:27:42;2.25;;;0.70;;
38843;SDS011;24596;48.080;8.362;2023-10-31T10:30:08;2.97;;;0.80;;
38843;SDS011;24596;48.080;8.362;2023-10-31T10:32:33;3.63;;;0.60;;
38843;SDS011;24596;48.080;8.362;2023-10-31T10:34:59;6.03;;;0.80;;
38843;SDS011;24596;48.080;8.362;2023-10-31T10:37:26;1.95;;;0.70;;
38843;SDS011;24596;48.080;8.362;2023-10-31T10:39:52;2.10;;;0.60;;
38843;SDS011;24596;48.080;8.362;2023-10-31T10:42:27;4.07;;;1.27;;
38843;SDS011;24596;48.080;8.362;2023-10-31T10:44:55;4.07;;;0.60;;
38843;SDS011;24596;48.080;8.362;2023-10-31T10:47:23;3.10;;;1.33;;
38843;SDS011;24596;48.080;8.362;2023-10-31T10:49:49;4.60;;;0.70;;
38843;SDS011;24596;48.080;8.362;2023-10-31T10:52:23;1.98;;;0.70;;
38843;SDS011;24596;48.080;8.362;2023-10-31T10:54:54;1.90;;;0.60;;
38843;SDS011;24596;48.080;8.362;2023-10-31T10:57:27;4.95;;;0.80;;
38843;SDS011;24596;48.080;8.362;2023-10-31T10:59:58;4.80;;;0.90;;
38843;SDS011;24596;48.080;8.362;2023-10-31T11:02:24;6.50;;;0.82;;
38843;SDS011;24596;48.080;8.362;2023-10-31T11:04:50;5.30;;;0.65;;
38843;SDS011;24596;48.080;8.362;2023-10-31T11:07:16;2.50;;;0.63;;
38843;SDS011;24596;48.080;8.362;2023-10-31T11:09:42;2.63;;;0.73;;
38843;SDS011;24596;48.080;8.362;2023-10-31T11:12:09;2.50;;;0.50;;
38843;SDS011;24596;48.080;8.362;2023-10-31T11:14:35;2.45;;;0.60;;
38843;SDS011;24596;48.080;8.362;2023-10-31T11:17:01;2.55;;;0.60;;
38843;SDS011;24596;48.080;8.362;2023-10-31T11:19:29;6.65;;;1.10;;
38843;SDS011;24596;48.080;8.362;2023-10-31T11:21:56;2.20;;;0.85;;
38843;SDS011;24596;48.080;8.362;2023-10-31T11:24:22;1.80;;;0.60;;
38843;SDS011;24596;48.080;8.362;2023-10-31T11:26:52;3.33;;;0.80;;
38843;SDS011;24596;48.080;8.362;2023-10-31T11:29:17;2.13;;;0.85;;
38843;SDS011;24596;48.080;8.362;2023-10-31T11:31:43;5.70;;;1.30;;
38843;SDS011;24596;48.080;8.362;2023-10-31T11:34:08;5.60;;;1.45;;
38843;SDS011;24596;48.080;8.362;2023-10-31T11:36:35;3.97;;;1.02;;
38843;SDS011;24596;48.080;8.362;2023-10-31T11:39:10;4.15;;;1.00;;
38843;SDS011;24596;48.080;8.362;2023-10-31T11:41:37;1.65;;;0.73;;
38843;SDS011;24596;48.080;8.362;2023-10-31T11:44:02;4.82;;;1.10;;
38843;SDS011;24596;48.080;8.362;2023-10-31T11:46:28;1.80;;;0.55;;
38843;SDS011;24596;48.080;8.362;2023-10-31T11:48:54;2.35;;;0.55;;
38843;SDS011;24596;48.080;8.362;2023-10-31T11:51:21;5.25;;;0.80;;
38843;SDS011;24596;48.080;8.362;2023-10-31T11:53:46;2.55;;;0.80;;
38843;SDS011;24596;48.080;8.362;2023-10-31T11:56:12;3.15;;;0.60;;
38843;SDS011;24596;48.080;8.362;2023-10-31T11:58:38;3.22;;;0.90;;
38843;SDS011;24596;48.080;8.362;2023-10-31T12:01:04;5.03;;;0.75;;
38843;SDS011;24596;48.080;8.362;2023-10-31T12:03:40;3.17;;;0.75;;
38843;SDS011;24596;48.080;8.362;2023-10-31T12:06:06;4.13;;;0.70;;
38843;SDS011;24596;48.080;8.362;2023-10-31T12:08:32;4.43;;;0.88;;
38843;SDS011;24596;48.080;8.362;2023-10-31T12:11:07;4.03;;;0.75;;
38843;SDS011;24596;48.080;8.362;2023-10-31T12:13:33;1.95;;;0.68;;
38843;SDS011;24596;48.080;8.362;2023-10-31T12:15:59;6.03;;;0.90;;
38843;SDS011;24596;48.080;8.362;2023-10-31T12:18:26;2.65;;;0.80;;
38843;SDS011;24596;48.080;8.362;2023-10-31T12:20:51;6.00;;;1.63;;
38843;SDS011;24596;48.080;8.362;2023-10-31T12:23:17;1.85;;;0.70;;
38843;SDS011;24596;48.080;8.362;2023-10-31T12:25:49;1.90;;;0.73;;
38843;SDS011;24596;48.080;8.362;2023-10-31T12:28:18;4.10;;;0.70;;
38843;SDS011;24596;48.080;8.362;2023-10-31T12:30:44;6.72;;;0.80;;
38843;SDS011;24596;48.080;8.362;2023-10-31T12:33:14;5.80;;;0.90;;
38843;SDS011;24596;48.080;8.362;2023-10-31T12:35:39;2.25;;;0.70;;
38843;SDS011;24596;48.080;8.362;2023-10-31T12:38:05;2.58;;;0.82;;
38843;SDS011;24596;48.080;8.362;2023-10-31T12:40:31;4.38;;;0.90;;
38843;SDS011;24596;48.080;8.362;2023-10-31T12:42:56;3.20;;;0.57;;
38843;SDS011;24596;48.080;8.362;2023-10-31T12:45:25;2.70;;;0.50;;
38843;SDS011;24596;48.080;8.362;2023-10-31T12:48:02;3.72;;;1.48;;
38843;SDS011;24596;48.080;8.362;2023-10-31T12:50:33;1.95;;;0.73;;
38843;SDS011;24596;48.080;8.362;2023-10-31T12:53:00;3.40;;;0.60;;
38843;SDS011;24596;48.080;8.362;2023-10-31T12:55:29;1.55;;;0.90;;
38843;SDS011;24596;48.080;8.362;2023-10-31T12:57:55;1.58;;;0.50;;
38843;SDS011;24596;48.080;8.362;2023-10-31T13:00:23;1.20;;;0.43;;
38843;SDS011;24596;48.080;8.362;2023-10-31T13:03:07;1.42;;;0.50;;
38843;SDS011;24596;48.080;8.362;2023-10-31T13:05:40;4.55;;;0.88;;
38843;SDS011;24596;48.080;8.362;2023-10-31T13:08:14;2.03;;;0.50;;
38843;SDS011;24596;48.080;8.362;2023-10-31T13:10:43;2.83;;;0.82;;
38843;SDS011;24596;48.080;8.362;2023-10-31T13:13:10;1.13;;;0.57;;
38843;SDS011;24596;48.080;8.362;2023-10-31T13:15:38;0.80;;;0.50;;
38843;SDS011;24596;48.080;8.362;2023-10-31T13:18:03;2.45;;;0.70;;
38843;SDS011;24596;48.080;8.362;2023-10-31T13:20:32;0.70;;;0.40;;
38843;SDS011;24596;48.080;8.362;2023-10-31T13:23:04;1.77;;;0.60;;
38843;SDS011;24596;48.080;8.362;2023-10-31T13:25:29;1.83;;;0.70;;
38843;SDS011;24596;48.080;8.362;2023-10-31T13:27:59;1.85;;;0.40;;
38843;SDS011;24596;48.080;8.362;2023-10-31T13:30:30;0.75;;;0.40;;
38843;SDS011;24596;48.080;8.362;2023-10-31T13:32:55;1.48;;;0.40;;
38843;SDS011;24596;48.080;8.362;2023-10-31T13:35:23;0.85;;;0.35;;
38843;SDS011;24596;48.080;8.362;2023-10-31T13:37:49;1.10;;;0.43;;
38843;SDS011;24596;48.080;8.362;2023-10-31T13:40:17;0.50;;;0.40;;
38843;SDS011;24596;48.080;8.362;2023-10-31T13:42:42;0.55;;;0.40;;
38843;SDS011;24596;48.080;8.362;2023-10-31T13:45:08;0.68;;;0.38;;
38843;SDS011;24596;48.080;8.362;2023-10-31T13:47:37;0.75;;;0.40;;
38843;SDS011;24596;48.080;8.362;2023-10-31T13:50:06;0.40;;;0.32;;
38843;SDS011;24596;48.080;8.362;2023-10-31T13:52:37;3.13;;;1.20;;
38843;SDS011;24596;48.080;8.362;2023-10-31T13:55:06;0.70;;;0.50;;
38843;SDS011;24596;48.080;8.362;2023-10-31T13:57:32;1.27;;;0.30;;
38843;SDS011;24596;48.080;8.362;2023-10-31T14:00:00;0.30;;;0.30;;
38843;SDS011;24596;48.080;8.362;2023-10-31T14:02:25;0.45;;;0.30;;
38843;SDS011;24596;48.080;8.362;2023-10-31T14:04:53;0.65;;;0.32;;
38843;SDS011;24596;48.080;8.362;2023-10-31T14:07:21;0.47;;;0.25;;
38843;SDS011;24596;48.080;8.362;2023-10-31T14:09:55;0.20;;;0.20;;
38843;SDS011;24596;48.080;8.362;2023-10-31T14:12:23;0.38;;;0.22;;
38843;SDS011;24596;48.080;8.362;2023-10-31T14:14:48;0.40;;;0.30;;
38843;SDS011;24596;48.080;8.362;2023-10-31T14:17:16;0.20;;;0.20;;
38843;SDS011;24596;48.080;8.362;2023-10-31T14:19:44;0.90;;;0.20;;
38843;SDS011;24596;48.080;8.362;2023-10-31T14:22:11;0.80;;;0.30;;
38843;SDS011;24596;48.080;8.362;2023-10-31T14:24:38;1.00;;;0.20;;
38843;SDS011;24596;48.080;8.362;2023-10-31T14:27:07;1.15;;;0.35;;
38843;SDS011;24596;48.080;8.362;2023-10-31T14:29:32;1.67;;;0.30;;
38843;SDS011;24596;48.080;8.362;2023-10-31T14:32:10;1.65;;;0.20;;
38843;SDS011;24596;48.080;8.362;2023-10-31T14:34:38;0.35;;;0.30;;
38843;SDS011;24596;48.080;8.362;2023-10-31T14:37:03;0.43;;;0.20;;
38843;SDS011;24596;48.080;8.362;2023-10-31T14:39:33;0.30;;;0.30;;
38843;SDS011;24596;48.080;8.362;2023-10-31T14:42:03;0.85;;;0.40;;
38843;SDS011;24596;48.080;8.362;2023-10-31T14:44:46;0.45;;;0.30;;